Monday, September 01, 2014
23:31 UTC
  |  Log In   |  Register Free
Airport Search:

Meyers-Diver'S Airport
(3TE)

Meyers-Diver'S Airport Diagram
No Airport Diagram Available

FAA data valid effective July 24, 2014 until September 18, 2014 (unless otherwise noted).

 
 
 
 
 
 
 
 
 
 
 
 
 
 

Current Aviation Weather for Meyers-Diver'S Airport (3TE)

The most recent METAR observation for KADG was updated at: 2153 UTC
METAR Summary (Translated METAR)
KADG
012153Z AUTO 26010G22KT 10SM FEW041 FEW049 SCT070 28/21 A2979 RMK AO2 PK WND 23029/2134 LTG DSNT NW RAB07E17 SLP082 P0000 T02780206
KDUH
(20.4 nm SE from KADG)
012155Z AUTO 22009G18KT 190V260 7SM SCT120 28/20 A2978 RMK AO2
TAF Summary (Translated TAF)
KTOL
(20.7 nm SE from KADG)
011722Z 0118/0218 20012G20KT P6SM BKN025 TEMPO 0118/0119 SCT025 BKN035 FM011900 22012G20KT P6SM BKN035 TEMPO 0121/0124 VRB15G30KT 3SM TSRA OVC025CB FM020900 23010KT 5SM -SHRA OVC025 FM021400 27010KT P6SM BKN035
  Airport Weather Conditions for 3TE

Current weather conditions are
not available for 3TE


The nearest NOAA weather station
is at ADG, (11.3 nm SW from 3TE)
  
 Current Weather at ADG
81° F
Partly Cloudy
Southwest winds at 15.0 mph
ADG NOAA Radar

Pressure: 29.79 in
Humidity: 69%
Wind: from the Southwest at 15.0 gusting to 24.2 MPH (13 gusting to 21 KT)
Dew Point: 70.0°F
Visibility: 10.00 mi


Airport Weather Forecast for 3TE

Translated METAR and TAF for KADG
Translated METAR for KADG (2325 UTC 01 September 2014)
found at http://aviationweather.gov/adds/metars/
 
METAR text: KADG 012253Z AUTO 23013G21KT 10SM FEW038 SCT049 27/21 A2979 RMK AO2 LTG DSNT N AND NE SLP085 T02720211
Conditions at: KADG (ADRIAN , MI, US) observed 2253 UTC 01 September 2014
Temperature: 27.2°C (81°F)
Dewpoint: 21.1°C (70°F) [RH = 69%]
Pressure (altimeter): 29.79 inches Hg (1008.9 mb)
[Sea-level pressure: 1008.5 mb]
Winds: from the SW (230 degrees) at 15 MPH (13 knots; 6.8 m/s)
gusting to 24 MPH (21 knots; 10.9 m/s)
Visibility: 10 or more miles (16+ km)
Ceiling: at least 12,000 feet AGL
Clouds: few clouds at 3800 feet AGL
scattered clouds at 4900 feet AGL
Weather: automated observation with no human augmentation;
there may or may not be significant weather present at this time
Translated TAF for KADG

There is no translated TAF available for this airport

Find All Airport Services Find A Hotel Find A Rental Car Find A Golf Course Find A Restaurant $100 Hamburger



FBO's on the Field
FBO Company Facility Photos Services Transportation Aviation Fuel Prices: Prices include tax
Catering Weather Repair Courtesy Rental Type 100LL JetA JetA+ MOGAS 8087
 
Village of Boyceville

This FBO has not yet been rated
FS:Independent
Last Updated: Aug-22
Login to update fuel prices
SS:
Contact Village of BoycevilleMore FBO Information
 
Add another FBO Facility Photos Catering Weather Repair Courtesy Rental Type 100LL JetA JetA+ MOGAS 8087
Services Transportation Aviation Fuel Prices: Prices include tax


GlobalAir.com Airport Resource Center model-print
model-print
model-print
model-print